sensor_id;sensor_type;location;lat;lon;timestamp;pressure;altitude;pressure_sealevel;temperature;humidity
59055;BME280;44845;51.444;7.460;2023-03-26T00:02:03;98892.16;;;8.58;78.82
59055;BME280;44845;51.444;7.460;2023-03-26T00:04:29;98884.31;;;8.58;78.66
59055;BME280;44845;51.444;7.460;2023-03-26T00:06:57;98905.28;;;8.52;79.01
59055;BME280;44845;51.444;7.460;2023-03-26T00:09:22;98908.72;;;8.55;79.15
59055;BME280;44845;51.444;7.460;2023-03-26T00:11:47;98906.03;;;8.63;78.99
59055;BME280;44845;51.444;7.460;2023-03-26T00:14:13;98894.66;;;8.66;78.86
59055;BME280;44845;51.444;7.460;2023-03-26T00:16:42;98906.09;;;8.60;79.08
59055;BME280;44845;51.444;7.460;2023-03-26T00:19:08;98906.09;;;8.60;78.97
59055;BME280;44845;51.444;7.460;2023-03-26T00:21:34;98909.56;;;8.59;79.21
59055;BME280;44845;51.444;7.460;2023-03-26T00:24:04;98904.25;;;8.65;79.32
59055;BME280;44845;51.444;7.460;2023-03-26T00:26:32;98900.75;;;8.66;78.82
59055;BME280;44845;51.444;7.460;2023-03-26T00:28:58;98896.47;;;8.62;79.15
59055;BME280;44845;51.444;7.460;2023-03-26T00:31:24;98900.75;;;8.66;79.05
59055;BME280;44845;51.444;7.460;2023-03-26T00:33:51;98895.56;;;8.63;79.05
59055;BME280;44845;51.444;7.460;2023-03-26T00:36:20;98898.97;;;8.69;79.19
59055;BME280;44845;51.444;7.460;2023-03-26T00:38:45;98895.53;;;8.66;79.22
59055;BME280;44845;51.444;7.460;2023-03-26T00:41:14;98885.00;;;8.71;78.99
59055;BME280;44845;51.444;7.460;2023-03-26T00:43:47;98891.16;;;8.67;79.42
59055;BME280;44845;51.444;7.460;2023-03-26T00:46:13;98878.03;;;8.72;79.08
59055;BME280;44845;51.444;7.460;2023-03-26T00:48:38;98881.59;;;8.67;79.02
59055;BME280;44845;51.444;7.460;2023-03-26T00:51:07;98877.16;;;8.71;79.01
59055;BME280;44845;51.444;7.460;2023-03-26T00:53:32;98871.06;;;8.71;78.91
59055;BME280;44845;51.444;7.460;2023-03-26T00:55:58;98871.97;;;8.68;79.32
59055;BME280;44845;51.444;7.460;2023-03-26T00:58:25;98867.56;;;8.72;79.53
59055;BME280;44845;51.444;7.460;2023-03-26T01:00:54;98872.75;;;8.75;79.24
59055;BME280;44845;51.444;7.460;2023-03-26T01:03:25;98867.56;;;8.72;79.04
59055;BME280;44845;51.444;7.460;2023-03-26T01:05:57;98860.56;;;8.74;78.97
59055;BME280;44845;51.444;7.460;2023-03-26T01:08:37;98857.06;;;8.75;78.75
59055;BME280;44845;51.444;7.460;2023-03-26T01:11:07;98857.94;;;8.74;78.88
59055;BME280;44845;51.444;7.460;2023-03-26T01:13:40;98857.06;;;8.75;78.83
59055;BME280;44845;51.444;7.460;2023-03-26T01:16:28;98851.78;;;8.78;78.83
59055;BME280;44845;51.444;7.460;2023-03-26T01:18:55;98855.34;;;8.74;78.48
59055;BME280;44845;51.444;7.460;2023-03-26T01:21:24;98853.66;;;8.70;78.02
59055;BME280;44845;51.444;7.460;2023-03-26T01:28:57;98844.09;;;8.69;78.77
59055;BME280;44845;51.444;7.460;2023-03-26T01:31:36;98843.22;;;8.70;78.57
59055;BME280;44845;51.444;7.460;2023-03-26T01:34:27;98841.38;;;8.75;78.17
59055;BME280;44845;51.444;7.460;2023-03-26T01:37:22;98830.06;;;8.73;78.64
59055;BME280;44845;51.444;7.460;2023-03-26T01:39:55;98830.94;;;8.75;78.15
59055;BME280;44845;51.444;7.460;2023-03-26T01:45:31;98834.50;;;8.69;77.89
59055;BME280;44845;51.444;7.460;2023-03-26T01:47:58;98826.63;;;8.72;78.08
59055;BME280;44845;51.444;7.460;2023-03-26T01:50:24;98824.91;;;8.68;78.07
59055;BME280;44845;51.444;7.460;2023-03-26T01:52:50;98828.31;;;8.73;77.92
59055;BME280;44845;51.444;7.460;2023-03-26T01:55:16;98828.38;;;8.70;77.80
59055;BME280;44845;51.444;7.460;2023-03-26T02:00:30;98823.06;;;8.76;78.08
59055;BME280;44845;51.444;7.460;2023-03-26T02:08:37;98804.78;;;8.75;78.27
59055;BME280;44845;51.444;7.460;2023-03-26T02:11:14;98799.56;;;8.73;77.90
59055;BME280;44845;51.444;7.460;2023-03-26T02:13:42;98799.59;;;8.70;78.29
59055;BME280;44845;51.444;7.460;2023-03-26T02:16:10;98799.59;;;8.72;77.93
59055;BME280;44845;51.444;7.460;2023-03-26T02:18:38;98796.09;;;8.73;77.84
59055;BME280;44845;51.444;7.460;2023-03-26T02:21:17;98790.84;;;8.74;77.38
59055;BME280;44845;51.444;7.460;2023-03-26T02:23:51;98789.19;;;8.69;77.76
59055;BME280;44845;51.444;7.460;2023-03-26T02:26:22;98783.97;;;8.69;77.82
59055;BME280;44845;51.444;7.460;2023-03-26T02:28:48;98782.19;;;8.71;78.05
59055;BME280;44845;51.444;7.460;2023-03-26T02:31:14;98777.81;;;8.71;77.85
59055;BME280;44845;51.444;7.460;2023-03-26T02:33:41;98777.06;;;8.64;77.61
59055;BME280;44845;51.444;7.460;2023-03-26T02:36:09;98769.22;;;8.64;77.68
59055;BME280;44845;51.444;7.460;2023-03-26T02:38:34;98774.50;;;8.61;77.54
59055;BME280;44845;51.444;7.460;2023-03-26T02:41:01;98765.72;;;8.65;77.70
59055;BME280;44845;51.444;7.460;2023-03-26T02:43:26;98764.06;;;8.61;77.92
59055;BME280;44845;51.444;7.460;2023-03-26T02:45:52;98767.59;;;8.57;77.62
59055;BME280;44845;51.444;7.460;2023-03-26T02:48:17;98765.84;;;8.56;78.02
59055;BME280;44845;51.444;7.460;2023-03-26T02:50:43;98765.06;;;8.51;78.32
59055;BME280;44845;51.444;7.460;2023-03-26T02:53:08;98759.75;;;8.57;78.28
59055;BME280;44845;51.444;7.460;2023-03-26T02:55:34;98759.78;;;8.54;78.55
59055;BME280;44845;51.444;7.460;2023-03-26T02:57:59;98760.63;;;8.58;78.00
59055;BME280;44845;51.444;7.460;2023-03-26T03:00:25;98753.66;;;8.58;78.22
59055;BME280;44845;51.444;7.460;2023-03-26T03:02:51;98750.16;;;8.58;78.20
59055;BME280;44845;51.444;7.460;2023-03-26T03:05:22;98747.53;;;8.59;78.21
59055;BME280;44845;51.444;7.460;2023-03-26T03:07:51;98759.66;;;8.63;78.69
59055;BME280;44845;51.444;7.460;2023-03-26T03:10:16;98750.16;;;8.59;78.92
59055;BME280;44845;51.444;7.460;2023-03-26T03:12:46;98744.88;;;8.62;78.49
59055;BME280;44845;51.444;7.460;2023-03-26T03:15:12;98744.06;;;8.60;78.32
59055;BME280;44845;51.444;7.460;2023-03-26T03:17:38;98730.06;;;8.61;78.34
59055;BME280;44845;51.444;7.460;2023-03-26T03:20:04;98723.16;;;8.57;78.58
59055;BME280;44845;51.444;7.460;2023-03-26T03:22:31;98717.91;;;8.59;78.22
59055;BME280;44845;51.444;7.460;2023-03-26T03:24:57;98711.81;;;8.60;78.03
59055;BME280;44845;51.444;7.460;2023-03-26T03:27:24;98717.09;;;8.55;77.95
59055;BME280;44845;51.444;7.460;2023-03-26T03:29:50;98702.25;;;8.57;78.03
59055;BME280;44845;51.444;7.460;2023-03-26T03:32:18;98708.34;;;8.56;77.64
59055;BME280;44845;51.444;7.460;2023-03-26T03:34:43;98701.56;;;8.47;78.02
59055;BME280;44845;51.444;7.460;2023-03-26T03:37:08;98710.25;;;8.46;77.70
59055;BME280;44845;51.444;7.460;2023-03-26T03:39:34;98699.81;;;8.48;77.61
59055;BME280;44845;51.444;7.460;2023-03-26T03:41:59;98700.81;;;8.40;77.48
59055;BME280;44845;51.444;7.460;2023-03-26T03:44:24;98697.38;;;8.37;77.65
59055;BME280;44845;51.444;7.460;2023-03-26T03:46:50;98704.41;;;8.33;77.64
59055;BME280;44845;51.444;7.460;2023-03-26T03:49:18;98693.25;;;8.23;77.87
59055;BME280;44845;51.444;7.460;2023-03-26T03:51:43;98690.50;;;8.31;77.36
59055;BME280;44845;51.444;7.460;2023-03-26T03:54:09;98690.56;;;8.28;77.51
59055;BME280;44845;51.444;7.460;2023-03-26T03:56:34;98689.72;;;8.26;77.47
59055;BME280;44845;51.444;7.460;2023-03-26T03:59:00;98689.78;;;8.22;77.17
59055;BME280;44845;51.444;7.460;2023-03-26T04:01:25;98679.31;;;8.22;77.65
59055;BME280;44845;51.444;7.460;2023-03-26T04:03:51;98683.75;;;8.17;77.44
59055;BME280;44845;51.444;7.460;2023-03-26T04:06:16;98687.25;;;8.16;77.41
59055;BME280;44845;51.444;7.460;2023-03-26T04:08:43;98687.25;;;8.16;77.30
59055;BME280;44845;51.444;7.460;2023-03-26T04:11:09;98678.59;;;8.14;77.82
59055;BME280;44845;51.444;7.460;2023-03-26T04:13:34;98689.94;;;8.13;77.80
59055;BME280;44845;51.444;7.460;2023-03-26T04:16:00;98682.09;;;8.11;78.31
59055;BME280;44845;51.444;7.460;2023-03-26T04:18:25;98677.78;;;8.10;78.46
59055;BME280;44845;51.444;7.460;2023-03-26T04:20:51;98672.53;;;8.12;78.61
59055;BME280;44845;51.444;7.460;2023-03-26T04:23:20;98659.38;;;8.18;79.11
59055;BME280;44845;51.444;7.460;2023-03-26T04:25:51;98656.69;;;8.21;78.99
59055;BME280;44845;51.444;7.460;2023-03-26T04:28:40;98662.75;;;8.23;79.34
59055;BME280;44845;51.444;7.460;2023-03-26T04:31:08;98652.25;;;8.27;78.92
59055;BME280;44845;51.444;7.460;2023-03-26T04:33:36;98645.25;;;8.29;78.89
59055;BME280;44845;51.444;7.460;2023-03-26T04:36:04;98650.47;;;8.29;79.31
59055;BME280;44845;51.444;7.460;2023-03-26T04:38:39;98636.53;;;8.30;79.25
59055;BME280;44845;51.444;7.460;2023-03-26T04:41:08;98634.81;;;8.29;78.99
59055;BME280;44845;51.444;7.460;2023-03-26T04:43:35;98625.09;;;8.37;78.77
59055;BME280;44845;51.444;7.460;2023-03-26T04:46:01;98619.81;;;8.39;78.75
59055;BME280;44845;51.444;7.460;2023-03-26T04:48:29;98624.13;;;8.41;78.58
59055;BME280;44845;51.444;7.460;2023-03-26T04:50:55;98621.56;;;8.40;78.17
59055;BME280;44845;51.444;7.460;2023-03-26T04:53:21;98616.34;;;8.40;78.35
59055;BME280;44845;51.444;7.460;2023-03-26T04:56:05;98616.44;;;8.33;78.29
59055;BME280;44845;51.444;7.460;2023-03-26T04:58:33;98606.97;;;8.28;78.20
59055;BME280;44845;51.444;7.460;2023-03-26T05:01:00;98599.97;;;8.30;78.17
59055;BME280;44845;51.444;7.460;2023-03-26T05:03:29;98601.75;;;8.28;78.50
59055;BME280;44845;51.444;7.460;2023-03-26T05:05:58;98607.94;;;8.22;78.62
59055;BME280;44845;51.444;7.460;2023-03-26T05:08:24;98609.63;;;8.25;78.52
59055;BME280;44845;51.444;7.460;2023-03-26T05:10:51;98600.88;;;8.27;78.51
59055;BME280;44845;51.444;7.460;2023-03-26T05:13:16;98592.13;;;8.28;78.31
59055;BME280;44845;51.444;7.460;2023-03-26T05:15:41;98591.34;;;8.25;78.58
59055;BME280;44845;51.444;7.460;2023-03-26T05:18:07;98595.72;;;8.24;78.44
59055;BME280;44845;51.444;7.460;2023-03-26T05:20:33;98586.13;;;8.25;78.40
59055;BME280;44845;51.444;7.460;2023-03-26T05:22:58;98580.91;;;8.25;78.37
59055;BME280;44845;51.444;7.460;2023-03-26T05:25:23;98579.94;;;8.29;78.59
59055;BME280;44845;51.444;7.460;2023-03-26T05:27:49;98581.63;;;8.33;78.35
59055;BME280;44845;51.444;7.460;2023-03-26T05:30:17;98580.72;;;8.34;78.50
59055;BME280;44845;51.444;7.460;2023-03-26T05:32:43;98569.34;;;8.37;78.17
59055;BME280;44845;51.444;7.460;2023-03-26T05:35:09;98573.72;;;8.36;78.04
59055;BME280;44845;51.444;7.460;2023-03-26T05:37:34;98565.00;;;8.37;78.11
59055;BME280;44845;51.444;7.460;2023-03-26T05:39:59;98564.94;;;8.40;77.98
59055;BME280;44845;51.444;7.460;2023-03-26T05:42:25;98557.16;;;8.37;78.27
59055;BME280;44845;51.444;7.460;2023-03-26T05:44:50;98558.84;;;8.40;78.19
59055;BME280;44845;51.444;7.460;2023-03-26T05:47:16;98553.59;;;8.41;78.06
59055;BME280;44845;51.444;7.460;2023-03-26T05:49:41;98552.75;;;8.39;77.75
59055;BME280;44845;51.444;7.460;2023-03-26T05:52:07;98550.97;;;8.41;77.81
59055;BME280;44845;51.444;7.460;2023-03-26T05:54:32;98546.66;;;8.40;77.90
59055;BME280;44845;51.444;7.460;2023-03-26T05:56:57;98534.44;;;8.42;77.62
59055;BME280;44845;51.444;7.460;2023-03-26T05:59:24;98533.50;;;8.43;78.12
59055;BME280;44845;51.444;7.460;2023-03-26T06:01:50;98534.31;;;8.47;78.03
59055;BME280;44845;51.444;7.460;2023-03-26T06:04:16;98528.22;;;8.47;77.81
59055;BME280;44845;51.444;7.460;2023-03-26T06:06:42;98540.34;;;8.51;77.74
59055;BME280;44845;51.444;7.460;2023-03-26T06:09:09;98529.03;;;8.50;77.53
59055;BME280;44845;51.444;7.460;2023-03-26T06:11:36;98530.78;;;8.50;78.07
59055;BME280;44845;51.444;7.460;2023-03-26T06:14:01;98516.00;;;8.49;77.75
59055;BME280;44845;51.444;7.460;2023-03-26T06:16:27;98508.97;;;8.51;78.26
59055;BME280;44845;51.444;7.460;2023-03-26T06:18:52;98514.16;;;8.54;78.17
59055;BME280;44845;51.444;7.460;2023-03-26T06:21:18;98511.50;;;8.55;77.59
59055;BME280;44845;51.444;7.460;2023-03-26T06:23:43;98503.69;;;8.54;77.03
59055;BME280;44845;51.444;7.460;2023-03-26T06:26:08;98505.44;;;8.55;77.53
59055;BME280;44845;51.444;7.460;2023-03-26T06:28:34;98489.75;;;8.55;78.15
59055;BME280;44845;51.444;7.460;2023-03-26T06:31:01;98496.69;;;8.56;78.60
59055;BME280;44845;51.444;7.460;2023-03-26T06:33:26;98491.44;;;8.59;77.89
59055;BME280;44845;51.444;7.460;2023-03-26T06:35:52;98502.69;;;8.61;78.42
59055;BME280;44845;51.444;7.460;2023-03-26T06:38:17;98501.75;;;8.65;78.00
59055;BME280;44845;51.444;7.460;2023-03-26T06:40:43;98496.56;;;8.64;78.55
59055;BME280;44845;51.444;7.460;2023-03-26T06:43:08;98495.78;;;8.60;78.08
59055;BME280;44845;51.444;7.460;2023-03-26T06:45:34;98501.81;;;8.62;77.78
59055;BME280;44845;51.444;7.460;2023-03-26T06:47:59;98506.22;;;8.60;77.93
59055;BME280;44845;51.444;7.460;2023-03-26T06:50:26;98508.75;;;8.63;77.99
59055;BME280;44845;51.444;7.460;2023-03-26T06:52:55;98505.25;;;8.64;78.37
59055;BME280;44845;51.444;7.460;2023-03-26T06:55:20;98499.94;;;8.69;78.05
59055;BME280;44845;51.444;7.460;2023-03-26T06:57:53;98499.81;;;8.74;78.21
59055;BME280;44845;51.444;7.460;2023-03-26T07:00:19;98496.38;;;8.72;78.17
59055;BME280;44845;51.444;7.460;2023-03-26T07:02:45;98494.66;;;8.72;78.15
59055;BME280;44845;51.444;7.460;2023-03-26T07:05:11;98493.78;;;8.72;78.07
59055;BME280;44845;51.444;7.460;2023-03-26T07:07:37;98498.84;;;8.78;77.99
59055;BME280;44845;51.444;7.460;2023-03-26T07:10:03;98499.78;;;8.77;77.88
59055;BME280;44845;51.444;7.460;2023-03-26T07:12:29;98489.22;;;8.80;77.71
59055;BME280;44845;51.444;7.460;2023-03-26T07:14:54;98488.38;;;8.80;78.53
59055;BME280;44845;51.444;7.460;2023-03-26T07:17:19;98482.34;;;8.76;78.19
59055;BME280;44845;51.444;7.460;2023-03-26T07:19:45;98479.63;;;8.81;78.58
59055;BME280;44845;51.444;7.460;2023-03-26T07:22:18;98477.00;;;8.82;78.59
59055;BME280;44845;51.444;7.460;2023-03-26T07:24:44;98471.84;;;8.79;79.13
59055;BME280;44845;51.444;7.460;2023-03-26T07:27:22;98472.59;;;8.83;78.72
59055;BME280;44845;51.444;7.460;2023-03-26T07:30:04;98471.69;;;8.85;78.91
59055;BME280;44845;51.444;7.460;2023-03-26T07:43:08;98453.31;;;8.88;79.09
59055;BME280;44845;51.444;7.460;2023-03-26T07:45:39;98454.06;;;8.94;79.05
59055;BME280;44845;51.444;7.460;2023-03-26T07:48:22;98445.31;;;8.95;79.40
59055;BME280;44845;51.444;7.460;2023-03-26T07:50:55;98448.84;;;8.94;79.05
59055;BME280;44845;51.444;7.460;2023-03-26T07:53:21;98451.38;;;8.97;79.14
59055;BME280;44845;51.444;7.460;2023-03-26T08:01:32;98435.69;;;8.97;79.20
59055;BME280;44845;51.444;7.460;2023-03-26T08:04:09;98438.31;;;8.97;79.01
59055;BME280;44845;51.444;7.460;2023-03-26T08:06:38;98434.84;;;8.95;79.10
59055;BME280;44845;51.444;7.460;2023-03-26T08:09:22;98433.16;;;8.94;78.96
59055;BME280;44845;51.444;7.460;2023-03-26T08:15:00;98427.31;;;8.82;78.37
59055;BME280;44845;51.444;7.460;2023-03-26T08:17:45;98424.50;;;8.92;79.00
59055;BME280;44845;51.444;7.460;2023-03-26T08:22:55;98420.00;;;8.97;79.55
59055;BME280;44845;51.444;7.460;2023-03-26T08:25:33;98420.72;;;9.02;79.03
59055;BME280;44845;51.444;7.460;2023-03-26T08:30:35;98415.59;;;8.99;79.47
59055;BME280;44845;51.444;7.460;2023-03-26T08:33:20;98417.16;;;9.06;78.36
59055;BME280;44845;51.444;7.460;2023-03-26T08:35:48;98409.34;;;9.05;78.21
59055;BME280;44845;51.444;7.460;2023-03-26T08:38:16;98411.03;;;9.07;78.75
59055;BME280;44845;51.444;7.460;2023-03-26T08:43:52;98403.78;;;9.19;79.18
59055;BME280;44845;51.444;7.460;2023-03-26T08:46:37;98408.22;;;9.15;79.53
59055;BME280;44845;51.444;7.460;2023-03-26T08:57:30;98405.66;;;9.12;79.22
59055;BME280;44845;51.444;7.460;2023-03-26T09:03:02;98398.88;;;9.06;79.52
59055;BME280;44845;51.444;7.460;2023-03-26T09:05:52;98396.88;;;9.15;79.62
59055;BME280;44845;51.444;7.460;2023-03-26T09:17:31;98388.00;;;9.22;78.27
59055;BME280;44845;51.444;7.460;2023-03-26T09:22:51;98390.41;;;9.30;79.97
59055;BME280;44845;51.444;7.460;2023-03-26T09:33:54;98381.47;;;9.39;79.39
59055;BME280;44845;51.444;7.460;2023-03-26T09:36:51;98385.25;;;9.27;77.91
59055;BME280;44845;51.444;7.460;2023-03-26T09:42:43;98383.19;;;9.40;79.29
59055;BME280;44845;51.444;7.460;2023-03-26T09:53:59;98379.38;;;9.52;78.98
59055;BME280;44845;51.444;7.460;2023-03-26T10:02:44;98370.66;;;9.51;79.18
59055;BME280;44845;51.444;7.460;2023-03-26T10:05:34;98369.75;;;9.52;79.58
59055;BME280;44845;51.444;7.460;2023-03-26T10:13:37;98365.34;;;9.54;77.45
59055;BME280;44845;51.444;7.460;2023-03-26T10:16:27;98364.31;;;9.60;79.44
59055;BME280;44845;51.444;7.460;2023-03-26T10:19:05;98359.97;;;9.61;78.87
59055;BME280;44845;51.444;7.460;2023-03-26T10:24:37;98358.16;;;9.63;78.32
59055;BME280;44845;51.444;7.460;2023-03-26T10:27:23;98362.59;;;9.59;78.34
59055;BME280;44845;51.444;7.460;2023-03-26T10:41:07;98358.75;;;9.41;78.18
59055;BME280;44845;51.444;7.460;2023-03-26T10:46:59;98352.91;;;9.29;77.71
59055;BME280;44845;51.444;7.460;2023-03-26T10:49:58;98359.00;;;9.31;78.88
59055;BME280;44845;51.444;7.460;2023-03-26T10:52:51;98356.47;;;9.27;78.45
59055;BME280;44845;51.444;7.460;2023-03-26T10:55:28;98353.91;;;9.25;78.66
59055;BME280;44845;51.444;7.460;2023-03-26T10:57:59;98361.75;;;9.25;78.56
59055;BME280;44845;51.444;7.460;2023-03-26T11:00:27;98357.66;;;9.15;78.51
59055;BME280;44845;51.444;7.460;2023-03-26T11:14:42;98347.50;;;9.02;77.47
59055;BME280;44845;51.444;7.460;2023-03-26T11:17:19;98344.00;;;9.03;77.15
59055;BME280;44845;51.444;7.460;2023-03-26T11:20:02;98343.25;;;8.99;78.31
59055;BME280;44845;51.444;7.460;2023-03-26T11:32:59;98341.41;;;9.03;78.40
59055;BME280;44845;51.444;7.460;2023-03-26T11:35:38;98336.97;;;9.05;77.95
59055;BME280;44845;51.444;7.460;2023-03-26T11:38:14;98340.53;;;9.03;78.28
59055;BME280;44845;51.444;7.460;2023-03-26T11:40:42;98343.31;;;8.96;77.51
59055;BME280;44845;51.444;7.460;2023-03-26T11:43:13;98338.78;;;9.03;78.47
59055;BME280;44845;51.444;7.460;2023-03-26T11:45:44;98330.25;;;8.95;75.91
59055;BME280;44845;51.444;7.460;2023-03-26T11:48:20;98330.91;;;8.70;74.95
59055;BME280;44845;51.444;7.460;2023-03-26T11:50:56;98328.81;;;8.83;75.86
59055;BME280;44845;51.444;7.460;2023-03-26T11:53:26;98327.00;;;8.86;75.32
59055;BME280;44845;51.444;7.460;2023-03-26T11:56:17;98330.44;;;8.88;75.53
59055;BME280;44845;51.444;7.460;2023-03-26T11:58:49;98323.25;;;8.97;77.50
59055;BME280;44845;51.444;7.460;2023-03-26T12:01:23;98328.31;;;9.03;77.80
59055;BME280;44845;51.444;7.460;2023-03-26T12:04:03;98324.72;;;9.07;78.32
59055;BME280;44845;51.444;7.460;2023-03-26T12:06:29;98317.69;;;9.09;76.86
59055;BME280;44845;51.444;7.460;2023-03-26T12:08:57;98329.69;;;9.18;76.88
59055;BME280;44845;51.444;7.460;2023-03-26T12:11:28;98319.75;;;8.98;75.06
59055;BME280;44845;51.444;7.460;2023-03-26T12:14:01;98322.09;;;9.07;75.54
59055;BME280;44845;51.444;7.460;2023-03-26T12:16:28;98321.09;;;9.13;75.12
59055;BME280;44845;51.444;7.460;2023-03-26T12:19:05;98315.06;;;9.09;75.48
59055;BME280;44845;51.444;7.460;2023-03-26T12:21:47;98307.00;;;9.19;75.51
59055;BME280;44845;51.444;7.460;2023-03-26T12:24:26;98306.22;;;8.80;73.11
59055;BME280;44845;51.444;7.460;2023-03-26T12:26:57;98302.22;;;9.01;75.92
59055;BME280;44845;51.444;7.460;2023-03-26T12:29:27;98313.19;;;9.15;76.13
59055;BME280;44845;51.444;7.460;2023-03-26T12:32:03;98305.19;;;9.21;76.44
59055;BME280;44845;51.444;7.460;2023-03-26T12:34:33;98307.56;;;9.30;75.52
59055;BME280;44845;51.444;7.460;2023-03-26T12:37:00;98308.19;;;9.07;73.28
59055;BME280;44845;51.444;7.460;2023-03-26T12:41:58;98311.88;;;8.25;74.36
59055;BME280;44845;51.444;7.460;2023-03-26T12:44:28;98304.41;;;8.45;76.77
59055;BME280;44845;51.444;7.460;2023-03-26T12:47:15;98300.88;;;8.50;76.53
59055;BME280;44845;51.444;7.460;2023-03-26T12:49:44;98307.28;;;8.73;76.64
59055;BME280;44845;51.444;7.460;2023-03-26T12:57:38;98305.09;;;8.92;77.43
59055;BME280;44845;51.444;7.460;2023-03-26T13:05:46;98304.59;;;8.76;75.20
59055;BME280;44845;51.444;7.460;2023-03-26T13:13:57;98295.94;;;8.74;74.26
59055;BME280;44845;51.444;7.460;2023-03-26T13:19:39;98295.22;;;9.02;77.51
59055;BME280;44845;51.444;7.460;2023-03-26T13:22:22;98295.22;;;9.02;74.21
59055;BME280;44845;51.444;7.460;2023-03-26T13:24:56;98292.41;;;9.10;75.47
59055;BME280;44845;51.444;7.460;2023-03-26T13:29:59;98289.06;;;9.37;76.16
59055;BME280;44845;51.444;7.460;2023-03-26T13:35:26;98286.03;;;9.52;72.78
59055;BME280;44845;51.444;7.460;2023-03-26T13:46:37;98279.13;;;9.18;74.34
59055;BME280;44845;51.444;7.460;2023-03-26T13:49:11;98286.72;;;8.94;73.35
59055;BME280;44845;51.444;7.460;2023-03-26T13:51:52;98292.53;;;8.72;72.48
59055;BME280;44845;51.444;7.460;2023-03-26T13:56:52;98291.34;;;8.84;73.69
59055;BME280;44845;51.444;7.460;2023-03-26T13:59:34;98296.19;;;8.98;74.91
59055;BME280;44845;51.444;7.460;2023-03-26T14:02:09;98287.28;;;9.07;72.94
59055;BME280;44845;51.444;7.460;2023-03-26T14:04:47;98299.06;;;8.88;72.12
59055;BME280;44845;51.444;7.460;2023-03-26T14:07:20;98298.38;;;8.45;72.42
59055;BME280;44845;51.444;7.460;2023-03-26T14:09:52;98297.56;;;8.41;73.33
59055;BME280;44845;51.444;7.460;2023-03-26T14:12:44;98304.34;;;8.50;73.97
59055;BME280;44845;51.444;7.460;2023-03-26T14:15:43;98305.09;;;8.54;74.01
59055;BME280;44845;51.444;7.460;2023-03-26T14:18:36;98305.00;;;8.60;74.10
59055;BME280;44845;51.444;7.460;2023-03-26T14:21:28;98311.88;;;8.63;75.21
59055;BME280;44845;51.444;7.460;2023-03-26T14:26:53;98309.75;;;8.42;73.63
59055;BME280;44845;51.444;7.460;2023-03-26T14:29:27;98310.63;;;8.41;75.02
59055;BME280;44845;51.444;7.460;2023-03-26T14:32:25;98316.88;;;8.36;75.48
59055;BME280;44845;51.444;7.460;2023-03-26T14:38:56;98325.47;;;8.39;76.52
59055;BME280;44845;51.444;7.460;2023-03-26T14:54:19;98333.22;;;8.44;79.01
59055;BME280;44845;51.444;7.460;2023-03-26T15:03:04;98345.19;;;8.53;78.61
59055;BME280;44845;51.444;7.460;2023-03-26T15:06:05;98342.94;;;8.77;76.91
59055;BME280;44845;51.444;7.460;2023-03-26T15:11:56;98351.84;;;8.28;76.48
59055;BME280;44845;51.444;7.460;2023-03-26T15:14:44;98354.66;;;8.20;77.07
59055;BME280;44845;51.444;7.460;2023-03-26T15:29:00;98376.13;;;7.92;78.46
59055;BME280;44845;51.444;7.460;2023-03-26T15:45:40;98398.38;;;8.09;76.91
59055;BME280;44845;51.444;7.460;2023-03-26T15:56:18;98421.16;;;8.04;80.16
59055;BME280;44845;51.444;7.460;2023-03-26T16:10:54;98431.78;;;7.93;79.99
59055;BME280;44845;51.444;7.460;2023-03-26T16:13:26;98440.00;;;7.74;80.22
59055;BME280;44845;51.444;7.460;2023-03-26T16:18:39;98448.00;;;7.63;80.09
59055;BME280;44845;51.444;7.460;2023-03-26T16:29:23;98464.13;;;7.36;81.64
59055;BME280;44845;51.444;7.460;2023-03-26T16:32:32;98476.13;;;7.45;81.51
59055;BME280;44845;51.444;7.460;2023-03-26T16:37:49;98484.47;;;7.14;81.75
59055;BME280;44845;51.444;7.460;2023-03-26T16:40:33;98486.09;;;7.21;82.70
59055;BME280;44845;51.444;7.460;2023-03-26T16:43:17;98495.28;;;7.46;81.83
59055;BME280;44845;51.444;7.460;2023-03-26T16:51:54;98501.94;;;7.62;81.61
59055;BME280;44845;51.444;7.460;2023-03-26T16:54:49;98505.38;;;7.66;81.93
59055;BME280;44845;51.444;7.460;2023-03-26T16:57:25;98529.84;;;7.59;80.84
59055;BME280;44845;51.444;7.460;2023-03-26T17:07:46;98549.97;;;6.92;81.51
59055;BME280;44845;51.444;7.460;2023-03-26T17:10:27;98556.97;;;6.86;81.39
59055;BME280;44845;51.444;7.460;2023-03-26T17:13:10;98564.09;;;6.75;81.70
59055;BME280;44845;51.444;7.460;2023-03-26T17:15:45;98562.19;;;6.86;81.78
59055;BME280;44845;51.444;7.460;2023-03-26T17:18:23;98565.88;;;6.73;81.44
59055;BME280;44845;51.444;7.460;2023-03-26T17:21:18;98583.25;;;6.71;82.07
59055;BME280;44845;51.444;7.460;2023-03-26T17:24:03;98581.41;;;6.79;81.21
59055;BME280;44845;51.444;7.460;2023-03-26T17:29:29;98593.94;;;7.17;81.14
59055;BME280;44845;51.444;7.460;2023-03-26T17:32:04;98596.72;;;7.04;80.72
59055;BME280;44845;51.444;7.460;2023-03-26T17:42:16;98613.97;;;7.15;80.53
59055;BME280;44845;51.444;7.460;2023-03-26T17:45:00;98625.44;;;7.01;79.92
59055;BME280;44845;51.444;7.460;2023-03-26T17:47:44;98638.34;;;7.12;79.79
59055;BME280;44845;51.444;7.460;2023-03-26T17:50:16;98641.16;;;6.93;79.21
59055;BME280;44845;51.444;7.460;2023-03-26T17:55:15;98662.00;;;6.98;77.22
59055;BME280;44845;51.444;7.460;2023-03-26T17:57:47;98646.50;;;6.85;77.86
59055;BME280;44845;51.444;7.460;2023-03-26T18:00:20;98659.25;;;7.07;77.68
59055;BME280;44845;51.444;7.460;2023-03-26T18:03:19;98653.34;;;6.94;77.39
59055;BME280;44845;51.444;7.460;2023-03-26T18:05:47;98664.50;;;7.04;77.28
59055;BME280;44845;51.444;7.460;2023-03-26T18:08:40;98671.53;;;6.96;76.82
59055;BME280;44845;51.444;7.460;2023-03-26T18:16:49;98702.19;;;6.75;74.84
59055;BME280;44845;51.444;7.460;2023-03-26T18:19:17;98702.97;;;6.83;75.78
59055;BME280;44845;51.444;7.460;2023-03-26T18:21:45;98702.97;;;6.83;75.13
59055;BME280;44845;51.444;7.460;2023-03-26T18:24:18;98716.66;;;7.04;73.37
59055;BME280;44845;51.444;7.460;2023-03-26T18:26:49;98712.44;;;6.91;73.15
59055;BME280;44845;51.444;7.460;2023-03-26T18:29:29;98726.66;;;6.63;73.21
59055;BME280;44845;51.444;7.460;2023-03-26T18:32:17;98725.78;;;6.59;73.11
59055;BME280;44845;51.444;7.460;2023-03-26T18:34:56;98734.50;;;6.58;73.14